Terminal Aerodrome Forecast
Issued by NWS

Home | Current Version | Previous Version | Graphics & Text | Print | Product List | Glossary On
Versions: 1 2 3 4 5 6 7 8 9 10 11 12 13 14 15 16 17 18
000
FTUS43 KUNR 261019 AAA
TAFGCC
TAF AMD
KGCC 261019Z 2610/2706 VRB03KT 2SM BR FEW100
     FM261400 17010KT P6SM SCT050
      TEMPO 2622/2702 5SM -TSRA BKN050CB=

USA.gov is the U.S. government's official web portal to all federal, state and local government web resources and services.